sensor_id;sensor_type;location;lat;lon;timestamp;P1;durP1;ratioP1;P2;durP2;ratioP2
37131;SDS011;23035;50.032;21.978;2023-02-18T00:04:20;13.63;;;8.43;;
37131;SDS011;23035;50.032;21.978;2023-02-18T00:14:28;9.85;;;7.32;;
37131;SDS011;23035;50.032;21.978;2023-02-18T00:19:34;9.35;;;6.68;;
37131;SDS011;23035;50.032;21.978;2023-02-18T00:24:39;9.75;;;5.97;;
37131;SDS011;23035;50.032;21.978;2023-02-18T00:29:43;10.20;;;6.00;;
37131;SDS011;23035;50.032;21.978;2023-02-18T00:34:49;7.25;;;4.90;;
37131;SDS011;23035;50.032;21.978;2023-02-18T00:39:53;9.25;;;4.47;;
37131;SDS011;23035;50.032;21.978;2023-02-18T00:44:58;5.90;;;4.30;;
37131;SDS011;23035;50.032;21.978;2023-02-18T00:50:04;6.88;;;3.58;;
37131;SDS011;23035;50.032;21.978;2023-02-18T00:55:09;8.52;;;3.88;;
37131;SDS011;23035;50.032;21.978;2023-02-18T01:00:14;6.10;;;3.30;;
37131;SDS011;23035;50.032;21.978;2023-02-18T01:05:20;6.70;;;3.93;;
37131;SDS011;23035;50.032;21.978;2023-02-18T01:10:24;6.93;;;3.53;;
37131;SDS011;23035;50.032;21.978;2023-02-18T01:15:29;9.68;;;4.07;;
37131;SDS011;23035;50.032;21.978;2023-02-18T01:20:36;4.97;;;3.07;;
37131;SDS011;23035;50.032;21.978;2023-02-18T01:25:42;7.55;;;3.50;;
37131;SDS011;23035;50.032;21.978;2023-02-18T01:30:46;7.95;;;3.70;;
37131;SDS011;23035;50.032;21.978;2023-02-18T01:35:54;7.55;;;4.68;;
37131;SDS011;23035;50.032;21.978;2023-02-18T01:46:05;4.05;;;3.28;;
37131;SDS011;23035;50.032;21.978;2023-02-18T01:51:17;8.60;;;3.35;;
37131;SDS011;23035;50.032;21.978;2023-02-18T01:56:25;5.43;;;2.90;;
37131;SDS011;23035;50.032;21.978;2023-02-18T02:01:32;4.57;;;2.45;;
37131;SDS011;23035;50.032;21.978;2023-02-18T02:06:39;4.27;;;2.10;;
37131;SDS011;23035;50.032;21.978;2023-02-18T02:11:53;4.40;;;2.13;;
37131;SDS011;23035;50.032;21.978;2023-02-18T02:17:21;5.22;;;2.13;;
37131;SDS011;23035;50.032;21.978;2023-02-18T02:34:29;3.13;;;2.05;;
37131;SDS011;23035;50.032;21.978;2023-02-18T02:40:00;7.05;;;2.30;;
37131;SDS011;23035;50.032;21.978;2023-02-18T02:45:15;3.30;;;1.90;;
37131;SDS011;23035;50.032;21.978;2023-02-18T02:50:30;2.50;;;1.55;;
37131;SDS011;23035;50.032;21.978;2023-02-18T02:55:42;2.88;;;1.65;;
37131;SDS011;23035;50.032;21.978;2023-02-18T03:00:51;3.00;;;1.85;;
37131;SDS011;23035;50.032;21.978;2023-02-18T03:06:18;4.07;;;1.90;;
37131;SDS011;23035;50.032;21.978;2023-02-18T03:11:39;4.60;;;2.17;;
37131;SDS011;23035;50.032;21.978;2023-02-18T03:16:51;3.58;;;1.50;;
37131;SDS011;23035;50.032;21.978;2023-02-18T03:22:04;3.45;;;1.20;;
37131;SDS011;23035;50.032;21.978;2023-02-18T03:27:13;3.70;;;1.48;;
37131;SDS011;23035;50.032;21.978;2023-02-18T03:32:21;3.05;;;1.20;;
37131;SDS011;23035;50.032;21.978;2023-02-18T03:37:30;3.97;;;1.25;;
37131;SDS011;23035;50.032;21.978;2023-02-18T03:42:36;4.32;;;0.90;;
37131;SDS011;23035;50.032;21.978;2023-02-18T03:47:41;3.90;;;1.40;;
37131;SDS011;23035;50.032;21.978;2023-02-18T03:52:51;2.15;;;0.95;;
37131;SDS011;23035;50.032;21.978;2023-02-18T03:57:55;2.00;;;1.10;;
37131;SDS011;23035;50.032;21.978;2023-02-18T04:03:00;1.90;;;0.88;;
37131;SDS011;23035;50.032;21.978;2023-02-18T04:08:08;1.85;;;0.82;;
37131;SDS011;23035;50.032;21.978;2023-02-18T04:13:13;3.03;;;1.00;;
37131;SDS011;23035;50.032;21.978;2023-02-18T04:18:18;1.95;;;0.80;;
37131;SDS011;23035;50.032;21.978;2023-02-18T04:23:23;1.73;;;0.88;;
37131;SDS011;23035;50.032;21.978;2023-02-18T04:28:28;2.97;;;0.85;;
37131;SDS011;23035;50.032;21.978;2023-02-18T04:33:32;3.88;;;0.98;;
37131;SDS011;23035;50.032;21.978;2023-02-18T04:38:38;2.28;;;0.93;;
37131;SDS011;23035;50.032;21.978;2023-02-18T04:43:43;3.03;;;0.82;;
37131;SDS011;23035;50.032;21.978;2023-02-18T04:48:47;3.08;;;0.80;;
37131;SDS011;23035;50.032;21.978;2023-02-18T04:53:53;2.17;;;1.00;;
37131;SDS011;23035;50.032;21.978;2023-02-18T04:58:57;4.30;;;1.50;;
37131;SDS011;23035;50.032;21.978;2023-02-18T05:04:02;4.90;;;1.30;;
37131;SDS011;23035;50.032;21.978;2023-02-18T05:09:08;2.38;;;1.17;;
37131;SDS011;23035;50.032;21.978;2023-02-18T05:14:13;3.28;;;1.00;;
37131;SDS011;23035;50.032;21.978;2023-02-18T05:19:18;2.10;;;1.10;;
37131;SDS011;23035;50.032;21.978;2023-02-18T05:24:23;2.58;;;1.23;;
37131;SDS011;23035;50.032;21.978;2023-02-18T05:29:28;2.70;;;1.20;;
37131;SDS011;23035;50.032;21.978;2023-02-18T05:34:32;2.53;;;0.95;;
37131;SDS011;23035;50.032;21.978;2023-02-18T05:39:38;2.33;;;0.93;;
37131;SDS011;23035;50.032;21.978;2023-02-18T05:44:43;2.28;;;1.15;;
37131;SDS011;23035;50.032;21.978;2023-02-18T05:49:47;4.80;;;1.67;;
37131;SDS011;23035;50.032;21.978;2023-02-18T05:54:53;3.17;;;1.25;;
37131;SDS011;23035;50.032;21.978;2023-02-18T05:59:58;4.78;;;0.82;;
37131;SDS011;23035;50.032;21.978;2023-02-18T06:05:02;2.83;;;1.27;;
37131;SDS011;23035;50.032;21.978;2023-02-18T06:10:08;3.30;;;1.20;;
37131;SDS011;23035;50.032;21.978;2023-02-18T06:15:14;5.45;;;1.45;;
37131;SDS011;23035;50.032;21.978;2023-02-18T06:20:18;2.75;;;1.33;;
37131;SDS011;23035;50.032;21.978;2023-02-18T06:25:24;2.88;;;0.80;;
37131;SDS011;23035;50.032;21.978;2023-02-18T06:35:33;5.40;;;1.27;;
37131;SDS011;23035;50.032;21.978;2023-02-18T06:40:38;2.92;;;1.30;;
37131;SDS011;23035;50.032;21.978;2023-02-18T06:45:43;3.65;;;1.20;;
37131;SDS011;23035;50.032;21.978;2023-02-18T06:50:48;1.85;;;1.02;;
37131;SDS011;23035;50.032;21.978;2023-02-18T06:55:54;3.67;;;1.70;;
37131;SDS011;23035;50.032;21.978;2023-02-18T07:06:03;3.63;;;1.58;;
37131;SDS011;23035;50.032;21.978;2023-02-18T07:11:09;5.85;;;1.95;;
37131;SDS011;23035;50.032;21.978;2023-02-18T07:16:13;5.03;;;1.85;;
37131;SDS011;23035;50.032;21.978;2023-02-18T07:21:18;3.33;;;1.25;;
37131;SDS011;23035;50.032;21.978;2023-02-18T07:26:24;3.75;;;1.23;;
37131;SDS011;23035;50.032;21.978;2023-02-18T07:36:33;6.00;;;1.42;;
37131;SDS011;23035;50.032;21.978;2023-02-18T07:41:41;5.13;;;1.60;;
37131;SDS011;23035;50.032;21.978;2023-02-18T07:46:49;10.13;;;2.33;;
37131;SDS011;23035;50.032;21.978;2023-02-18T07:51:54;6.37;;;1.20;;
37131;SDS011;23035;50.032;21.978;2023-02-18T07:57:00;3.22;;;1.10;;
37131;SDS011;23035;50.032;21.978;2023-02-18T08:02:05;4.35;;;1.30;;
37131;SDS011;23035;50.032;21.978;2023-02-18T08:07:11;7.60;;;1.27;;
37131;SDS011;23035;50.032;21.978;2023-02-18T08:12:18;3.88;;;1.23;;
37131;SDS011;23035;50.032;21.978;2023-02-18T08:17:22;3.83;;;1.60;;
37131;SDS011;23035;50.032;21.978;2023-02-18T08:22:27;1.65;;;1.30;;
37131;SDS011;23035;50.032;21.978;2023-02-18T08:27:32;5.32;;;1.80;;
37131;SDS011;23035;50.032;21.978;2023-02-18T08:32:37;4.00;;;1.55;;
37131;SDS011;23035;50.032;21.978;2023-02-18T08:37:42;6.03;;;1.50;;
37131;SDS011;23035;50.032;21.978;2023-02-18T08:42:56;2.88;;;1.65;;
37131;SDS011;23035;50.032;21.978;2023-02-18T08:48:01;5.57;;;2.22;;
37131;SDS011;23035;50.032;21.978;2023-02-18T08:53:21;6.03;;;3.10;;
37131;SDS011;23035;50.032;21.978;2023-02-18T08:58:27;10.63;;;3.67;;
37131;SDS011;23035;50.032;21.978;2023-02-18T09:03:33;18.80;;;4.88;;
37131;SDS011;23035;50.032;21.978;2023-02-18T09:08:38;12.50;;;3.60;;
37131;SDS011;23035;50.032;21.978;2023-02-18T09:13:43;12.30;;;3.80;;
37131;SDS011;23035;50.032;21.978;2023-02-18T09:18:48;18.35;;;3.25;;
37131;SDS011;23035;50.032;21.978;2023-02-18T09:23:53;8.45;;;2.50;;
37131;SDS011;23035;50.032;21.978;2023-02-18T09:28:58;5.78;;;2.25;;
37131;SDS011;23035;50.032;21.978;2023-02-18T09:34:03;7.07;;;2.25;;
37131;SDS011;23035;50.032;21.978;2023-02-18T09:39:08;9.77;;;3.17;;
37131;SDS011;23035;50.032;21.978;2023-02-18T09:49:24;4.43;;;1.73;;
37131;SDS011;23035;50.032;21.978;2023-02-18T09:54:31;18.48;;;3.00;;
37131;SDS011;23035;50.032;21.978;2023-02-18T09:59:37;5.07;;;2.17;;
37131;SDS011;23035;50.032;21.978;2023-02-18T10:04:42;6.20;;;1.90;;
37131;SDS011;23035;50.032;21.978;2023-02-18T10:09:52;5.03;;;1.75;;
37131;SDS011;23035;50.032;21.978;2023-02-18T10:14:59;5.15;;;1.73;;
37131;SDS011;23035;50.032;21.978;2023-02-18T10:20:05;6.28;;;2.05;;
37131;SDS011;23035;50.032;21.978;2023-02-18T10:25:14;3.47;;;1.80;;
37131;SDS011;23035;50.032;21.978;2023-02-18T10:30:24;5.28;;;2.47;;
37131;SDS011;23035;50.032;21.978;2023-02-18T10:35:34;4.80;;;2.60;;
37131;SDS011;23035;50.032;21.978;2023-02-18T10:40:51;8.02;;;2.42;;
37131;SDS011;23035;50.032;21.978;2023-02-18T10:46:03;5.25;;;2.13;;
37131;SDS011;23035;50.032;21.978;2023-02-18T10:51:18;6.53;;;2.38;;
37131;SDS011;23035;50.032;21.978;2023-02-18T10:56:32;5.60;;;3.00;;
37131;SDS011;23035;50.032;21.978;2023-02-18T11:01:41;7.03;;;2.38;;
37131;SDS011;23035;50.032;21.978;2023-02-18T11:06:47;6.90;;;1.70;;
37131;SDS011;23035;50.032;21.978;2023-02-18T11:11:57;7.32;;;2.60;;
37131;SDS011;23035;50.032;21.978;2023-02-18T11:17:19;6.15;;;1.48;;
37131;SDS011;23035;50.032;21.978;2023-02-18T11:22:29;3.90;;;2.08;;
37131;SDS011;23035;50.032;21.978;2023-02-18T11:27:37;2.63;;;1.55;;
37131;SDS011;23035;50.032;21.978;2023-02-18T11:32:48;3.28;;;1.65;;
37131;SDS011;23035;50.032;21.978;2023-02-18T11:37:58;3.10;;;1.70;;
37131;SDS011;23035;50.032;21.978;2023-02-18T11:43:06;4.15;;;2.20;;
37131;SDS011;23035;50.032;21.978;2023-02-18T11:48:18;4.15;;;1.80;;
37131;SDS011;23035;50.032;21.978;2023-02-18T11:53:27;5.03;;;2.20;;
37131;SDS011;23035;50.032;21.978;2023-02-18T11:58:36;5.65;;;1.90;;
37131;SDS011;23035;50.032;21.978;2023-02-18T12:03:45;7.18;;;2.67;;
37131;SDS011;23035;50.032;21.978;2023-02-18T12:08:56;4.95;;;2.35;;
37131;SDS011;23035;50.032;21.978;2023-02-18T12:14:07;3.90;;;2.30;;
37131;SDS011;23035;50.032;21.978;2023-02-18T12:19:26;5.88;;;2.40;;
37131;SDS011;23035;50.032;21.978;2023-02-18T12:24:51;4.88;;;2.20;;
37131;SDS011;23035;50.032;21.978;2023-02-18T12:30:24;4.97;;;2.00;;
37131;SDS011;23035;50.032;21.978;2023-02-18T12:35:50;5.38;;;2.58;;
37131;SDS011;23035;50.032;21.978;2023-02-18T12:41:10;3.65;;;2.08;;
37131;SDS011;23035;50.032;21.978;2023-02-18T12:46:38;3.88;;;2.30;;
37131;SDS011;23035;50.032;21.978;2023-02-18T12:51:56;4.25;;;2.25;;
37131;SDS011;23035;50.032;21.978;2023-02-18T12:57:10;5.15;;;2.10;;
37131;SDS011;23035;50.032;21.978;2023-02-18T13:02:35;4.63;;;2.50;;
37131;SDS011;23035;50.032;21.978;2023-02-18T13:07:57;6.82;;;2.88;;
37131;SDS011;23035;50.032;21.978;2023-02-18T13:13:10;6.93;;;2.90;;
37131;SDS011;23035;50.032;21.978;2023-02-18T13:18:19;13.73;;;2.83;;
37131;SDS011;23035;50.032;21.978;2023-02-18T13:23:29;8.52;;;2.60;;
37131;SDS011;23035;50.032;21.978;2023-02-18T13:28:37;6.82;;;2.80;;
37131;SDS011;23035;50.032;21.978;2023-02-18T13:33:50;4.97;;;2.05;;
37131;SDS011;23035;50.032;21.978;2023-02-18T13:39:04;3.40;;;1.67;;
37131;SDS011;23035;50.032;21.978;2023-02-18T13:49:52;8.98;;;1.98;;
37131;SDS011;23035;50.032;21.978;2023-02-18T13:54:58;4.13;;;2.20;;
37131;SDS011;23035;50.032;21.978;2023-02-18T14:05:19;8.20;;;3.53;;
37131;SDS011;23035;50.032;21.978;2023-02-18T14:10:27;12.63;;;4.28;;
37131;SDS011;23035;50.032;21.978;2023-02-18T14:21:16;13.23;;;3.60;;
37131;SDS011;23035;50.032;21.978;2023-02-18T14:26:27;11.25;;;4.20;;
37131;SDS011;23035;50.032;21.978;2023-02-18T14:31:35;13.40;;;4.40;;
37131;SDS011;23035;50.032;21.978;2023-02-18T14:36:54;8.27;;;3.47;;
37131;SDS011;23035;50.032;21.978;2023-02-18T14:42:09;6.35;;;2.80;;
37131;SDS011;23035;50.032;21.978;2023-02-18T14:47:25;8.63;;;3.65;;
37131;SDS011;23035;50.032;21.978;2023-02-18T14:52:39;7.15;;;2.70;;
37131;SDS011;23035;50.032;21.978;2023-02-18T14:57:50;8.75;;;3.05;;
37131;SDS011;23035;50.032;21.978;2023-02-18T15:02:58;7.78;;;3.05;;
37131;SDS011;23035;50.032;21.978;2023-02-18T15:08:05;17.90;;;6.20;;
37131;SDS011;23035;50.032;21.978;2023-02-18T15:13:19;15.35;;;6.20;;
37131;SDS011;23035;50.032;21.978;2023-02-18T15:18:29;16.13;;;5.72;;
37131;SDS011;23035;50.032;21.978;2023-02-18T15:23:37;27.85;;;11.02;;
37131;SDS011;23035;50.032;21.978;2023-02-18T15:28:53;18.27;;;8.57;;
37131;SDS011;23035;50.032;21.978;2023-02-18T15:34:01;22.23;;;8.32;;
37131;SDS011;23035;50.032;21.978;2023-02-18T15:39:05;32.65;;;13.15;;
37131;SDS011;23035;50.032;21.978;2023-02-18T15:44:17;42.97;;;10.30;;
37131;SDS011;23035;50.032;21.978;2023-02-18T15:49:25;17.40;;;8.05;;
37131;SDS011;23035;50.032;21.978;2023-02-18T15:54:29;23.50;;;9.52;;
37131;SDS011;23035;50.032;21.978;2023-02-18T16:04:59;26.40;;;10.18;;
37131;SDS011;23035;50.032;21.978;2023-02-18T16:10:12;24.05;;;10.68;;
37131;SDS011;23035;50.032;21.978;2023-02-18T16:15:24;30.10;;;11.18;;
37131;SDS011;23035;50.032;21.978;2023-02-18T16:20:30;18.40;;;8.35;;
37131;SDS011;23035;50.032;21.978;2023-02-18T16:25:41;28.70;;;9.32;;
37131;SDS011;23035;50.032;21.978;2023-02-18T16:30:48;31.23;;;13.10;;
37131;SDS011;23035;50.032;21.978;2023-02-18T16:40:59;19.58;;;7.57;;
37131;SDS011;23035;50.032;21.978;2023-02-18T16:46:09;18.60;;;7.78;;
37131;SDS011;23035;50.032;21.978;2023-02-18T16:51:20;19.77;;;7.30;;
37131;SDS011;23035;50.032;21.978;2023-02-18T16:56:28;21.67;;;8.40;;
37131;SDS011;23035;50.032;21.978;2023-02-18T17:01:37;68.38;;;31.92;;
37131;SDS011;23035;50.032;21.978;2023-02-18T17:06:45;43.13;;;20.90;;
37131;SDS011;23035;50.032;21.978;2023-02-18T17:11:50;48.92;;;21.95;;
37131;SDS011;23035;50.032;21.978;2023-02-18T17:16:58;32.05;;;15.77;;
37131;SDS011;23035;50.032;21.978;2023-02-18T17:22:05;37.97;;;17.60;;
37131;SDS011;23035;50.032;21.978;2023-02-18T17:27:09;50.55;;;21.80;;
37131;SDS011;23035;50.032;21.978;2023-02-18T17:32:15;51.13;;;21.52;;
37131;SDS011;23035;50.032;21.978;2023-02-18T17:37:20;46.03;;;22.35;;
37131;SDS011;23035;50.032;21.978;2023-02-18T17:42:24;44.78;;;19.80;;
37131;SDS011;23035;50.032;21.978;2023-02-18T17:47:30;36.13;;;17.52;;
37131;SDS011;23035;50.032;21.978;2023-02-18T17:57:39;20.67;;;10.48;;
37131;SDS011;23035;50.032;21.978;2023-02-18T18:02:48;23.48;;;10.88;;
37131;SDS011;23035;50.032;21.978;2023-02-18T18:07:53;23.58;;;11.55;;
37131;SDS011;23035;50.032;21.978;2023-02-18T18:12:57;29.42;;;11.55;;
37131;SDS011;23035;50.032;21.978;2023-02-18T18:18:04;24.85;;;11.98;;
37131;SDS011;23035;50.032;21.978;2023-02-18T18:23:10;23.77;;;10.40;;
37131;SDS011;23035;50.032;21.978;2023-02-18T18:28:16;27.58;;;11.65;;
37131;SDS011;23035;50.032;21.978;2023-02-18T18:33:23;28.92;;;13.23;;
37131;SDS011;23035;50.032;21.978;2023-02-18T18:38:30;18.02;;;7.05;;
37131;SDS011;23035;50.032;21.978;2023-02-18T18:43:35;10.00;;;5.32;;
37131;SDS011;23035;50.032;21.978;2023-02-18T18:48:42;10.57;;;4.68;;
37131;SDS011;23035;50.032;21.978;2023-02-18T18:53:47;7.55;;;4.68;;
37131;SDS011;23035;50.032;21.978;2023-02-18T18:58:52;8.40;;;4.85;;
37131;SDS011;23035;50.032;21.978;2023-02-18T19:03:58;14.68;;;7.63;;
37131;SDS011;23035;50.032;21.978;2023-02-18T19:14:07;27.30;;;11.00;;
37131;SDS011;23035;50.032;21.978;2023-02-18T19:19:16;23.80;;;11.23;;
37131;SDS011;23035;50.032;21.978;2023-02-18T19:24:22;18.35;;;9.65;;
37131;SDS011;23035;50.032;21.978;2023-02-18T19:29:27;37.95;;;14.30;;
37131;SDS011;23035;50.032;21.978;2023-02-18T19:34:33;23.58;;;8.90;;
37131;SDS011;23035;50.032;21.978;2023-02-18T19:39:38;27.42;;;10.63;;
37131;SDS011;23035;50.032;21.978;2023-02-18T19:44:42;22.00;;;7.93;;
37131;SDS011;23035;50.032;21.978;2023-02-18T19:49:49;15.00;;;7.25;;
37131;SDS011;23035;50.032;21.978;2023-02-18T19:54:54;16.15;;;8.57;;
37131;SDS011;23035;50.032;21.978;2023-02-18T19:59:59;14.73;;;8.50;;
37131;SDS011;23035;50.032;21.978;2023-02-18T20:05:15;18.73;;;9.13;;
37131;SDS011;23035;50.032;21.978;2023-02-18T20:10:20;16.85;;;7.97;;
37131;SDS011;23035;50.032;21.978;2023-02-18T20:15:26;17.42;;;8.85;;
37131;SDS011;23035;50.032;21.978;2023-02-18T20:20:33;12.43;;;6.93;;
37131;SDS011;23035;50.032;21.978;2023-02-18T20:30:42;11.20;;;6.10;;
37131;SDS011;23035;50.032;21.978;2023-02-18T20:35:55;10.50;;;5.33;;
37131;SDS011;23035;50.032;21.978;2023-02-18T20:41:02;10.85;;;6.20;;
37131;SDS011;23035;50.032;21.978;2023-02-18T20:46:09;8.48;;;5.13;;
37131;SDS011;23035;50.032;21.978;2023-02-18T20:51:18;5.93;;;3.80;;
37131;SDS011;23035;50.032;21.978;2023-02-18T20:56:25;7.25;;;2.72;;
37131;SDS011;23035;50.032;21.978;2023-02-18T21:01:29;9.65;;;2.50;;
37131;SDS011;23035;50.032;21.978;2023-02-18T21:06:36;4.95;;;2.80;;
37131;SDS011;23035;50.032;21.978;2023-02-18T21:11:46;8.38;;;2.92;;
37131;SDS011;23035;50.032;21.978;2023-02-18T21:16:52;3.45;;;2.45;;
37131;SDS011;23035;50.032;21.978;2023-02-18T21:21:58;5.45;;;2.72;;
37131;SDS011;23035;50.032;21.978;2023-02-18T21:27:02;5.05;;;2.75;;
37131;SDS011;23035;50.032;21.978;2023-02-18T21:32:07;7.43;;;3.30;;
37131;SDS011;23035;50.032;21.978;2023-02-18T21:37:13;8.77;;;3.53;;
37131;SDS011;23035;50.032;21.978;2023-02-18T21:47:21;5.03;;;2.50;;
37131;SDS011;23035;50.032;21.978;2023-02-18T21:52:27;5.45;;;2.38;;
37131;SDS011;23035;50.032;21.978;2023-02-18T21:57:33;3.75;;;1.92;;
37131;SDS011;23035;50.032;21.978;2023-02-18T22:02:38;3.63;;;1.60;;
37131;SDS011;23035;50.032;21.978;2023-02-18T22:07:44;3.28;;;1.63;;
37131;SDS011;23035;50.032;21.978;2023-02-18T22:12:48;2.50;;;1.30;;
37131;SDS011;23035;50.032;21.978;2023-02-18T22:17:53;7.03;;;3.55;;
37131;SDS011;23035;50.032;21.978;2023-02-18T22:22:58;3.55;;;2.00;;
37131;SDS011;23035;50.032;21.978;2023-02-18T22:28:03;4.05;;;1.73;;
37131;SDS011;23035;50.032;21.978;2023-02-18T22:33:10;2.40;;;1.45;;
37131;SDS011;23035;50.032;21.978;2023-02-18T22:38:16;4.15;;;1.45;;
37131;SDS011;23035;50.032;21.978;2023-02-18T22:43:21;2.03;;;1.20;;
37131;SDS011;23035;50.032;21.978;2023-02-18T22:48:25;2.80;;;1.38;;
37131;SDS011;23035;50.032;21.978;2023-02-18T22:53:32;3.47;;;1.80;;
37131;SDS011;23035;50.032;21.978;2023-02-18T22:58:36;2.65;;;1.70;;
37131;SDS011;23035;50.032;21.978;2023-02-18T23:03:42;4.13;;;1.60;;
37131;SDS011;23035;50.032;21.978;2023-02-18T23:08:48;3.17;;;1.88;;
37131;SDS011;23035;50.032;21.978;2023-02-18T23:13:53;2.67;;;1.67;;
37131;SDS011;23035;50.032;21.978;2023-02-18T23:19:24;4.63;;;2.13;;
37131;SDS011;23035;50.032;21.978;2023-02-18T23:24:32;3.97;;;2.22;;
37131;SDS011;23035;50.032;21.978;2023-02-18T23:29:37;3.20;;;2.00;;
37131;SDS011;23035;50.032;21.978;2023-02-18T23:34:42;2.93;;;1.67;;
37131;SDS011;23035;50.032;21.978;2023-02-18T23:39:50;5.15;;;2.10;;
37131;SDS011;23035;50.032;21.978;2023-02-18T23:44:55;4.90;;;1.95;;
37131;SDS011;23035;50.032;21.978;2023-02-18T23:50:00;4.35;;;1.75;;
37131;SDS011;23035;50.032;21.978;2023-02-18T23:55:06;4.35;;;1.92;;
